• Join FlightAware (Why Join?)
  • Login
  • US Flag 
03:53AM EDT


 

Airport Tracker/Info


-or-


 

Live Flight TrackerFlight Track Log ✈ DAL1981 ✈ 09-May-2013 ✈ KALB - KATL

Flight Track Log - Related Links

Times and Time Zones

All times are in EDT time to prevent confusion due to time zone crossing. See the DAL1981 flight status page for this flight to view local times or setup timezone preferences in your user account.

Time Position Orientation Groundspeed Altitude Reporting Facility
EDT Latitude Longitude Course Direction KTS MPH feet Rate Location/Type
06:14AM 42.7672 -73.8061 180° South 163 188 1,100  Level Boston Center
06:15AM 42.8358 -73.8331 344° North 252 290 3,000 2,340 Climbing Boston Center
06:16AM 42.8969 -73.9422 307° West 285 328 7,100 2,880 Climbing Boston Center
06:17AM 42.4257 -74.2532 198° South  Level Estimated
06:17AM 42.9539 -74.0372 309° West 285 328 10,100  Level Boston Center
06:18AM 42.3445 -74.3652 180° South  Level Estimated
06:18AM 42.9650 -74.1481 278° West 303 349 11,400  Level Boston Center
06:19AM 42.2633 -74.4770 180° South  Level Estimated
06:19AM 42.9089 -74.2656 237° Southwest 333 383 12,700  Level Boston Center
06:20AM 42.8225 -74.3197 205° Southwest 348 400 15,400 2,580 Climbing Boston Center
06:21AM 42.7106 -74.2853 167° South 358 412 17,900 2,400 Climbing Boston Center
06:22AM 42.6194 -74.2403 160° South 374 430 20,200 2,160 Climbing Boston Center
06:23AM 42.5161 -74.1836 158° South 374 430 22,300 1,740 Climbing Boston Center
06:24AM 42.4169 -74.1331 159° South 379 436 23,700 1,440 Climbing Boston Center
06:25AM 42.3178 -74.0828 159° South 384 442 25,200 1,440 Climbing Boston Center
06:26AM 42.2100 -74.0406 164° South 391 450 26,600 1,440 Climbing Boston Center
06:27AM 42.0992 -74.0544 185° South 391 450 28,100 1,380 Climbing Boston Center
06:28AM 41.9881 -74.1047 199° South 401 461 29,400 1,020 Climbing Boston Center
06:29AM 41.8789 -74.1550 199° South 408 470 30,200 900 Climbing Boston Center
06:32AM 41.6367 -74.2683 199° South 425 489 32,500 960 Climbing New York Center
06:33AM 41.5436 -74.3133 200° South 412 474 33,400 600 Climbing New York Center
06:34AM 41.4358 -74.3656 200° South 412 474 33,800 300 Climbing New York Center
06:35AM 41.3094 -74.4197 198° South 419 482 34,000 60 Climbing New York Center
06:36AM 41.1994 -74.4717 200° South 436 502 34,000  Level New York Center
06:37AM 41.0914 -74.5261 201° Southwest 430 495 34,000  Level New York Center
06:38AM 41.0011 -74.6147 217° Southwest 404 465 34,000  Level New York Center
06:39AM 40.9164 -74.7225 224° Southwest 419 482 34,000 -60 Level New York Center
06:40AM 40.8317 -74.8244 222° Southwest 419 482 33,900  Descending New York Center
06:41AM 40.7447 -74.9289 222° Southwest 425 489 34,000  Climbing New York Center
06:42AM 40.6575 -75.0331 222° Southwest 425 489 34,000  Level New York Center
06:43AM 40.5703 -75.1422 224° Southwest 431 496 34,000 -60 Level New York Center
06:44AM 40.4828 -75.2486 223° Southwest 431 496 33,900  Descending New York Center
06:45AM 40.3956 -75.3519 222° Southwest 431 496 34,000  Climbing New York Center
06:46AM 40.3081 -75.4578 223° Southwest 436 502 33,900  Descending New York Center
06:47AM 40.2225 -75.5661 224° Southwest 436 502 34,000  Climbing New York Center
06:48AM 40.1544 -75.6947 235° Southwest 431 496 34,000  Level New York Center
06:49AM 40.0886 -75.8256 237° Southwest 431 496 34,000  Level New York Center
06:51AM 39.9378 -76.0650 231° Southwest 431 496 34,000  Level Washington Center
06:52AM 39.8642 -76.1861 232° Southwest 431 496 34,000  Level Washington Center
06:53AM 39.7886 -76.3072 231° Southwest 431 496 34,000  Level Washington Center
06:54AM 39.7128 -76.4222 229° Southwest 426 490 34,000  Level Washington Center
06:55AM 39.6392 -76.5319 229° Southwest 434 499 34,000  Level Washington Center
06:56AM 39.5611 -76.6467 229° Southwest 434 499 34,000  Level Washington Center
06:57AM 39.4872 -76.7611 230° Southwest 434 499 34,000  Level Washington Center
06:58AM 39.4108 -76.8808 230° Southwest 434 499 34,000  Level Washington Center
06:59AM 39.3367 -76.9978 231° Southwest 424 488 34,000  Level Washington Center
07:00AM 39.2581 -77.1167 230° Southwest 424 488 34,000  Level Washington Center
07:01AM 39.1817 -77.2303 229° Southwest 429 494 34,000  Level Washington Center
07:02AM 39.1008 -77.3461 228° Southwest 429 494 34,000  Level Washington Center
07:03AM 39.0239 -77.4619 229° Southwest 429 494 34,000  Level Washington Center
07:04AM 38.9469 -77.5800 230° Southwest 429 494 34,000  Level Washington Center
07:05AM 38.8614 -77.7058 229° Southwest 429 494 34,000  Level Washington Center
07:06AM 38.7822 -77.8233 229° Southwest 422 486 34,000  Level Washington Center
07:07AM 38.7072 -77.9353 229° Southwest 429 494 34,000  Level Washington Center
07:08AM 38.6319 -78.0500 230° Southwest 429 494 34,000  Level Washington Center
07:09AM 38.5522 -78.1669 229° Southwest 429 494 34,000  Level Washington Center
07:10AM 38.4747 -78.2808 229° Southwest 429 494 34,000  Level Washington Center
07:11AM 38.3947 -78.3997 229° Southwest 429 494 34,000  Level Washington Center
07:12AM 38.3172 -78.5106 228° Southwest 429 494 34,000  Level Washington Center
07:13AM 38.2433 -78.6214 230° Southwest 424 488 34,000  Level Washington Center
07:14AM 38.1656 -78.7344 229° Southwest 424 488 34,000  Level Washington Center
07:15AM 38.0939 -78.8344 228° Southwest 424 488 34,000  Level Washington Center
07:16AM 38.0158 -78.9444 228° Southwest 424 488 34,000  Level Washington Center
07:17AM 37.9375 -79.0567 229° Southwest 429 494 34,000  Level Washington Center
07:18AM 37.8483 -79.1817 228° Southwest 429 494 34,000  Level Washington Center
07:19AM 37.7700 -79.2908 228° Southwest 429 494 34,000  Level Washington Center
07:20AM 37.6850 -79.4047 227° Southwest 429 494 34,000  Level Washington Center
07:21AM 37.6131 -79.5061 228° Southwest 437 503 34,000  Level Washington Center
07:22AM 37.5233 -79.6269 227° Southwest 437 503 34,000  Level Washington Center
07:23AM 37.4511 -79.7278 228° Southwest 437 503 34,000  Level Washington Center
07:24AM 37.3592 -79.8508 227° Southwest 442 509 34,000  Level Washington Center
07:25AM 37.2781 -79.9586 227° Southwest 437 503 34,000  Level Washington Center
07:26AM 37.1969 -80.0714 228° Southwest 437 503 34,000  Level Washington Center
07:27AM 37.0933 -80.2139 228° Southwest 432 497 34,000  Level Atlanta Center
07:28AM 37.0092 -80.3244 226° Southwest 432 497 34,000  Level Atlanta Center
07:29AM 36.9311 -80.4319 228° Southwest 432 497 34,000  Level Atlanta Center
07:30AM 36.8467 -80.5422 226° Southwest 432 497 34,000  Level Atlanta Center
07:31AM 36.7725 -80.6386 226° Southwest 432 497 34,000  Level Atlanta Center
07:32AM 36.6858 -80.7564 227° Southwest 424 488 34,000  Level Atlanta Center
07:33AM 36.6075 -80.8631 228° Southwest 424 488 34,000  Level Atlanta Center
07:34AM 36.5328 -80.9589 226° Southwest 424 488 34,000  Level Atlanta Center
07:35AM 36.4519 -81.0678 227° Southwest 431 496 34,000  Level Atlanta Center
07:36AM 36.3711 -81.1742 227° Southwest 431 496 34,000  Level Atlanta Center
07:37AM 36.2881 -81.2853 227° Southwest 431 496 34,000  Level Atlanta Center
07:38AM 36.2031 -81.3961 226° Southwest 431 496 34,000  Level Atlanta Center
07:39AM 36.1217 -81.5042 227° Southwest 436 502 34,000  Level Atlanta Center
07:40AM 36.0364 -81.6122 226° Southwest 441 507 34,000 -480 Level Atlanta Center
07:41AM 35.9531 -81.7225 227° Southwest 441 507 33,100 -1,020 Descending Atlanta Center
07:42AM 35.8694 -81.8297 226° Southwest 435 501 32,000 -600 Descending Atlanta Center
07:43AM 35.7836 -81.9397 226° Southwest 435 501 32,000  Level Atlanta Center
07:44AM 35.6939 -82.0569 227° Southwest 435 501 32,000  Level Atlanta Center
07:45AM 35.6017 -82.1614 223° Southwest 441 507 32,000  Level Atlanta Center
07:46AM 35.5114 -82.2656 223° Southwest 446 513 32,000  Level Atlanta Center
07:47AM 35.4231 -82.3644 222° Southwest 446 513 32,000 -900 Level Atlanta Center
07:48AM 35.3325 -82.4656 222° Southwest 440 506 30,200 -1,500 Descending Atlanta Center
07:49AM 35.2419 -82.5639 222° Southwest 440 506 29,000 -600 Descending Atlanta Center
07:50AM 35.1556 -82.6644 224° Southwest 440 506 29,000  Level Atlanta Center
07:51AM 35.0650 -82.7675 223° Southwest 440 506 29,000  Level Atlanta Center
07:52AM 34.9700 -82.8728 222° Southwest 440 506 29,000 -900 Level Atlanta Center
07:53AM 34.8792 -82.9753 223° Southwest 447 514 27,200 -1,800 Descending Atlanta Center
07:54AM 34.7861 -83.0753 221° Southwest 453 521 25,500 -1,560 Descending Atlanta Center
07:55AM 34.7053 -83.1669 223° Southwest 447 514 24,100 -780 Descending Atlanta Center
07:56AM 34.6142 -83.2639 221° Southwest 433 498 24,000 -420 Descending Atlanta Center
07:57AM 34.5250 -83.3606 222° Southwest 439 505 23,300 -1,800 Descending Atlanta Center
07:58AM 34.4378 -83.4569 222° Southwest 434 499 20,500 -2,640 Descending Atlanta Center
07:59AM 34.3547 -83.5506 223° Southwest 420 483 18,100 -2,400 Descending Atlanta Center
08:00AM 34.2819 -83.6342 224° Southwest 383 441 15,800 -2,160 Descending Atlanta Center
08:01AM 34.2069 -83.7147 222° Southwest 362 417 13,800 -1,620 Descending Atlanta Center
08:02AM 34.1383 -83.7903 222° Southwest 339 390 12,600 -900 Descending Atlanta Center
08:03AM 34.0781 -83.8533 221° Southwest 305 351 12,000 -1,200 Descending Atlanta Center
08:04AM 34.0167 -83.9167 221° Southwest 292 336 10,300 -1,500 Descending Atlanta TRACON
08:05AM 33.9500 -83.9500 203° Southwest 285 328 9,100 -660 Descending Atlanta TRACON
08:06AM 33.8667 -83.9667 189° South 290 334 9,000 -540 Descending Atlanta TRACON
08:07AM 33.7881 -83.9764 186° South 286 329 8,100 -600 Descending Atlanta Center
08:08AM 33.7086 -83.9864 186° South 291 335 7,900 -780 Descending Atlanta Center
08:09AM 33.6606 -84.0314 218° Southwest 249 287 6,600 -1,380 Descending Atlanta Center
08:10AM 33.6356 -84.1036 247° West 237 273 5,200 -960 Descending Atlanta Center
08:11AM 33.6333 -84.1667 268° West 220 253 4,900 -360 Descending Atlanta TRACON